Portada
METAR-TAF:

METAR-TAF

Aeropuertos :

Aeropuerto de Pardubice

Pardubice, República Checa

latitud: 50-00-48N, longitud: 15-44-19E, altitud: 226 m

Observación

El informe se hizo hace 19 minutos, a las 23:00 UTC
Viento 5 kt del oeste
Temperatura 10°C
Humedad 87%
Presión 1026 hPa
Visibilidad 10 km o más
lluvia ligera

METAR: LKPD 212300Z 27005KT 9999 -RA NSC 10/08 Q1026 RMK BLACK

Hora: 01:19 (23:19 UTC)

Pronóstico

El informe se hizo hace 36 horas y 19 minutos, a las 11:00 UTC
Pronóstico válido del 20 a las 12 UTC al 21 a las 12 UTC
Viento 5 kt del norte-noroeste
Visibilidad 10 km o más
Cielo nuboso a una altura de 4000 ft
Evolucionando progresivamente
del 20 a las 20 UTC al 20 a las 22 UTC
Viento 2 kt con dirección variable
Temporalmente
del 21 a las 00 UTC al 21 a las 06 UTC
Cielo nuboso a una altura de 2000 ft

TAF: LKPD 201100Z 2012/2112 33005KT 9999 BKN040 BECMG 2020/2022 VRB02KT TEMPO 2100/2106 BKN020

Observaciones y pronósticos meteorológicos de más de 4000 aeropuertos (mensajes METAR y TAF).

Los puntos amarillos y rojos representan las estaciones disponibles.

Ponga el ratón en el punto deseado para ver el nombre de la estación.

Haga clic para ver las observaciones y los pronósticos meteorológicos.

Para cambiar el mapa : haga clic en los botones verdes con una cruz de color negro para hacer un zoom, en el botón verde con un guión para alejar o en las flechas verdes para mapas adyacentes.


METAR-TAF: